Methodist Memorial Home, Indiana
Current Conditions -  °F | °C
As of 10:35 PM on Friday 19 Dec 2014 (Local Time) from KHHG Reporting Station
Overcast Overcast  
Wind Chill: 29°   Ceiling: 3000
Heat Index: 29°   Visibility: 7mi
Dew Point: 27°   Wind: 0mph
Humidity: 93%   Direction: NA
Pressure: 30.26"   Gusts: NA
Location:  40.6897°N, 85.3916°W
Report Text: KHHG 200335Z AUTO 00000KT 7SM OVC030 M02/M03 A3026 RMK AO2 T10171027
Loading
Personal Weather Stations






























Interactive Weather Map New forecast layout! Learn more

10-Day Weather Forecast

Advertisements
Track Severe Weather on mobile